<?xml version="1.0" encoding="utf-8"?>
<gpx xmlns:xsi="http://www.w3.org/2001/XMLSchema-instance" xmlns:xsd="http://www.w3.org/2001/XMLSchema" version="1.1" creator="Shapelink.com" xmlns="http://www.topografix.com/GPX/1/1" xmlns:gpxtpx="http://www.garmin.com/xmlschemas/TrackPointExtension/v1">
  <metadata>
    <name>Övrigt 1.36 km, 2020-07-28</name>
    <desc></desc>
    <author><name>Marian Moron</name></author> 
    <time>2020-07-28T20:20:53Z</time>
  </metadata>
  <trk>
    <name>Övrigt 1.36 km, 2020-07-28</name>
    <trkseg>
      <trkpt lat="51.22993475404" lon="4.45832841905">
        <ele>0.4</ele>
        <time>2020-07-28T20:20:53Z</time>
      </trkpt>
      <trkpt lat="51.22997414897" lon="4.458468312961">
        <ele>0</ele>
        <time>2020-07-28T20:20:59Z</time>
      </trkpt>
      <trkpt lat="51.22990960834" lon="4.458832590335">
        <ele>0</ele>
        <time>2020-07-28T20:21:43Z</time>
      </trkpt>
      <trkpt lat="51.229889659418" lon="4.458840050226">
        <ele>0</ele>
        <time>2020-07-28T20:21:45Z</time>
      </trkpt>
      <trkpt lat="51.229693020044" lon="4.458886066857">
        <ele>0</ele>
        <time>2020-07-28T20:21:58Z</time>
      </trkpt>
      <trkpt lat="51.229565196069" lon="4.458935520067">
        <ele>0</ele>
        <time>2020-07-28T20:22:12Z</time>
      </trkpt>
      <trkpt lat="51.229488920779" lon="4.459005928027">
        <ele>0.4</ele>
        <time>2020-07-28T20:22:21Z</time>
      </trkpt>
      <trkpt lat="51.229457991568" lon="4.459138613504">
        <ele>0.4</ele>
        <time>2020-07-28T20:22:28Z</time>
      </trkpt>
      <trkpt lat="51.229395462594" lon="4.459142804454">
        <ele>0.2</ele>
        <time>2020-07-28T20:22:34Z</time>
      </trkpt>
      <trkpt lat="51.228998663448" lon="4.459214134423">
        <ele>0</ele>
        <time>2020-07-28T20:24:07Z</time>
      </trkpt>
      <trkpt lat="51.22891886776" lon="4.459237268467">
        <ele>0</ele>
        <time>2020-07-28T20:24:18Z</time>
      </trkpt>
      <trkpt lat="51.228850387637" lon="4.459281943994">
        <ele>0</ele>
        <time>2020-07-28T20:24:25Z</time>
      </trkpt>
      <trkpt lat="51.228617789912" lon="4.459379928405">
        <ele>0</ele>
        <time>2020-07-28T20:24:55Z</time>
      </trkpt>
      <trkpt lat="51.228466161341" lon="4.459627026817">
        <ele>0</ele>
        <time>2020-07-28T20:25:19Z</time>
      </trkpt>
      <trkpt lat="51.228450403369" lon="4.45969215418">
        <ele>0</ele>
        <time>2020-07-28T20:25:26Z</time>
      </trkpt>
      <trkpt lat="51.228460461649" lon="4.459789803315">
        <ele>0</ele>
        <time>2020-07-28T20:25:33Z</time>
      </trkpt>
      <trkpt lat="51.228475381431" lon="4.460412075571">
        <ele>0</ele>
        <time>2020-07-28T20:26:26Z</time>
      </trkpt>
      <trkpt lat="51.228557104956" lon="4.460583569245">
        <ele>0</ele>
        <time>2020-07-28T20:26:43Z</time>
      </trkpt>
      <trkpt lat="51.228587363615" lon="4.460589352756">
        <ele>0</ele>
        <time>2020-07-28T20:26:45Z</time>
      </trkpt>
      <trkpt lat="51.228997322344" lon="4.460578037191">
        <ele>8.2</ele>
        <time>2020-07-28T20:27:43Z</time>
      </trkpt>
      <trkpt lat="51.229335364371" lon="4.460522884289">
        <ele>0</ele>
        <time>2020-07-28T20:28:13Z</time>
      </trkpt>
      <trkpt lat="51.229536949066" lon="4.460932256285">
        <ele>0</ele>
        <time>2020-07-28T20:29:09Z</time>
      </trkpt>
      <trkpt lat="51.229705676713" lon="4.460918845245">
        <ele>0</ele>
        <time>2020-07-28T20:29:26Z</time>
      </trkpt>
      <trkpt lat="51.229956966075" lon="4.461449251877">
        <ele>13.4</ele>
        <time>2020-07-28T20:30:06Z</time>
      </trkpt>
      <trkpt lat="51.22999510372" lon="4.46175745434">
        <ele>10.4</ele>
        <time>2020-07-28T20:30:28Z</time>
      </trkpt>
      <trkpt lat="51.230165340109" lon="4.462377631121">
        <ele>2.2</ele>
        <time>2020-07-28T20:31:12Z</time>
      </trkpt>
      <trkpt lat="51.230255613172" lon="4.462697316787">
        <ele>0</ele>
        <time>2020-07-28T20:31:38Z</time>
      </trkpt>
      <trkpt lat="51.230229461644" lon="4.462884400795">
        <ele>0</ele>
        <time>2020-07-28T20:32:00Z</time>
      </trkpt>
      <trkpt lat="51.230165004833" lon="4.462812316455">
        <ele>1.6</ele>
        <time>2020-07-28T20:32:13Z</time>
      </trkpt>
      <trkpt lat="51.230067104241" lon="4.462572594115">
        <ele>3</ele>
        <time>2020-07-28T20:32:38Z</time>
      </trkpt>
      <trkpt lat="51.229898628051" lon="4.462002038182">
        <ele>3.4</ele>
        <time>2020-07-28T20:34:11Z</time>
      </trkpt>
      <trkpt lat="51.229730738594" lon="4.461880081537">
        <ele>3.2</ele>
        <time>2020-07-28T20:34:38Z</time>
      </trkpt>
      <trkpt lat="51.229568548829" lon="4.461960044863">
        <ele>0</ele>
        <time>2020-07-28T20:34:55Z</time>
      </trkpt>
      <trkpt lat="51.229260933099" lon="4.461948645479">
        <ele>1.8</ele>
        <time>2020-07-28T20:35:39Z</time>
      </trkpt>
      <trkpt lat="51.229215754658" lon="4.461937916647">
        <ele>1</ele>
        <time>2020-07-28T20:35:42Z</time>
      </trkpt>
      <trkpt lat="51.228946192754" lon="4.461769608095">
        <ele>0</ele>
        <time>2020-07-28T20:37:00Z</time>
      </trkpt>
      <trkpt lat="51.229028838288" lon="4.461502728399">
        <ele>1.8</ele>
        <time>2020-07-28T20:37:24Z</time>
      </trkpt>
      <trkpt lat="51.228856338786" lon="4.461182204543">
        <ele>0</ele>
        <time>2020-07-28T20:37:55Z</time>
      </trkpt>
      <trkpt lat="51.228532378351" lon="4.461272058511">
        <ele>6.2</ele>
        <time>2020-07-28T20:38:24Z</time>
      </trkpt>
      <trkpt lat="51.228381839427" lon="4.46100559791">
        <ele>13.2</ele>
        <time>2020-07-28T20:38:56Z</time>
      </trkpt>
      <trkpt lat="51.228139434879" lon="4.460384750577">
        <ele>7.8</ele>
        <time>2020-07-28T20:39:35Z</time>
      </trkpt>
      <trkpt lat="51.228385443644" lon="4.459795167731">
        <ele>0</ele>
        <time>2020-07-28T20:40:13Z</time>
      </trkpt>
      <trkpt lat="51.228416959588" lon="4.459636163088">
        <ele>0</ele>
        <time>2020-07-28T20:40:25Z</time>
      </trkpt>
      <trkpt lat="51.228461467477" lon="4.459462825396">
        <ele>0</ele>
        <time>2020-07-28T20:40:44Z</time>
      </trkpt>
      <trkpt lat="51.228567330874" lon="4.458796883441">
        <ele>0</ele>
        <time>2020-07-28T20:41:28Z</time>
      </trkpt>
      <trkpt lat="51.228570432177" lon="4.458780454917">
        <ele>0</ele>
        <time>2020-07-28T20:41:29Z</time>
      </trkpt>
      <trkpt lat="51.228584262312" lon="4.458552718694">
        <ele>2.8</ele>
        <time>2020-07-28T20:41:45Z</time>
      </trkpt>
      <trkpt lat="51.228518883492" lon="4.458362868659">
        <ele>0</ele>
        <time>2020-07-28T20:42:08Z</time>
      </trkpt>
      <trkpt lat="51.228748296095" lon="4.458138820472">
        <ele>0</ele>
        <time>2020-07-28T20:42:54Z</time>
      </trkpt>
      <trkpt lat="51.229201253971" lon="4.458056342576">
        <ele>0</ele>
        <time>2020-07-28T20:43:42Z</time>
      </trkpt>
      <trkpt lat="51.229643985929" lon="4.457924160013">
        <ele>0</ele>
        <time>2020-07-28T20:44:22Z</time>
      </trkpt>
      <trkpt lat="51.229723446341" lon="4.457952574654">
        <ele>0</ele>
        <time>2020-07-28T20:44:38Z</time>
      </trkpt>
    </trkseg>
  </trk>
</gpx>